Huvudsida
METAR-TAF:

METAR-TAF

Flygplatser :

Rieti, Italien

latitud: 42-25N, longitud: 012-51E, höjd: 389 m

Aktuellt väderrapport

Denna rapport gjordes för 1 timme och 20 minuter sedan, klockan 12:50 UTC
Vind 8 kt från nordväst
Temperatur 31°C
Fuktighet 33%
Tryck 1016 hPa
Sikt 10 km eller mer
Inga moln under 1 500 m eller inga cumulonimbus

METAR: LIQN 241250Z 32008KT CAVOK 31/13 Q1016

Tid: 16:10 (14:10 UTC)


TAF: saknas

Aktuella väderrapporter och prognoser från 4000 flygplatser (METAR- och TAF-rapporter).

De tillgängliga stationerna syns som gula och röda prickar på kartan.

För musen över prickarna för att se namnen på stationerna.

Klicka sedan för att få väderrapporter och prognoser.

För att ändra kartan: Klicka på de gröna knapparna med ett svart kors på för att zooma in; den gröna knappen med ett streck på för att zooma ut; eller på de gröna pilarna för angränsande kartor.


METAR-TAF: